createdAt,value
2023-01-10T00:01:56.695Z,1.76
2023-01-10T00:04:23.691Z,1.71
2023-01-10T00:06:50.365Z,1.71
2023-01-10T00:09:16.879Z,1.90
2023-01-10T00:12:01.921Z,1.82
2023-01-10T00:14:29.334Z,1.68
2023-01-10T00:16:57.359Z,1.64
2023-01-10T00:19:25.461Z,1.61
2023-01-10T00:21:52.655Z,1.74
2023-01-10T00:24:19.143Z,1.78
2023-01-10T00:26:52.855Z,1.63
2023-01-10T00:29:20.980Z,1.58
2023-01-10T00:31:48.041Z,1.52
2023-01-10T00:34:14.826Z,1.53
2023-01-10T00:36:42.153Z,1.69
2023-01-10T00:39:11.055Z,1.60
2023-01-10T00:41:56.339Z,1.47
2023-01-10T00:44:22.930Z,1.40
2023-01-10T00:46:49.757Z,1.39
2023-01-10T00:49:16.411Z,1.43
2023-01-10T00:51:43.291Z,1.57
2023-01-10T00:54:10.183Z,1.41
2023-01-10T00:56:36.728Z,1.34
2023-01-10T00:59:06.085Z,1.30
2023-01-10T01:01:32.875Z,1.30
2023-01-10T01:04:01.793Z,1.44
2023-01-10T01:06:28.331Z,1.36
2023-01-10T01:08:54.812Z,1.28
2023-01-10T01:11:21.266Z,1.23
2023-01-10T01:13:47.788Z,1.17
2023-01-10T01:16:14.482Z,1.27
2023-01-10T01:18:44.539Z,1.36
2023-01-10T01:21:11.039Z,1.24
2023-01-10T01:23:37.698Z,1.15
2023-01-10T01:26:06.712Z,1.12
2023-01-10T01:28:33.256Z,1.12
2023-01-10T01:31:01.975Z,1.26
2023-01-10T01:33:28.552Z,1.19
2023-01-10T01:35:54.996Z,1.06
2023-01-10T01:38:21.460Z,1.01
2023-01-10T01:40:47.974Z,0.93
2023-01-10T01:43:23.305Z,1.03
2023-01-10T01:45:49.885Z,1.22
2023-01-10T01:48:19.113Z,1.10
2023-01-10T01:50:55.151Z,1.02
2023-01-10T01:53:31.197Z,0.96
2023-01-10T01:56:01.178Z,0.96
2023-01-10T01:58:37.726Z,1.13
2023-01-10T02:01:06.119Z,1.10
2023-01-10T02:03:33.334Z,0.99
2023-01-10T02:06:02.078Z,0.95
2023-01-10T02:08:28.784Z,0.93
2023-01-10T02:11:08.874Z,1.12
2023-01-10T02:13:38.479Z,1.10
2023-01-10T02:16:05.147Z,1.02
2023-01-10T02:18:31.721Z,1.00
2023-01-10T02:21:14.305Z,0.98
2023-01-10T02:23:59.672Z,0.96
2023-01-10T02:26:45.082Z,1.11
2023-01-10T02:29:15.018Z,1.15
2023-01-10T02:31:54.438Z,1.04
2023-01-10T02:34:39.712Z,0.99
2023-01-10T02:37:12.366Z,0.95
2023-01-10T02:39:52.137Z,1.08
2023-01-10T02:42:32.338Z,1.12
2023-01-10T02:45:04.455Z,1.02
2023-01-10T02:47:37.897Z,0.98
2023-01-10T02:50:19.716Z,0.93
2023-01-10T02:52:46.167Z,1.07
2023-01-10T02:55:12.649Z,1.07
2023-01-10T02:58:03.084Z,1.02
2023-01-10T03:00:46.147Z,0.98
2023-01-10T03:03:25.520Z,0.95
2023-01-10T03:05:55.911Z,0.95
2023-01-10T03:08:37.662Z,1.10
2023-01-10T03:11:07.983Z,1.12
2023-01-10T03:13:40.672Z,1.04
2023-01-10T03:16:09.849Z,1.01
2023-01-10T03:18:57.430Z,1.00
2023-01-10T03:21:25.985Z,1.15
2023-01-10T03:23:54.773Z,1.17
2023-01-10T03:26:26.230Z,1.09
2023-01-10T03:28:57.696Z,1.00
2023-01-10T03:31:28.993Z,1.01
2023-01-10T03:33:55.688Z,0.99
2023-01-10T03:36:34.411Z,1.02
2023-01-10T03:39:06.963Z,1.13
2023-01-10T03:41:52.229Z,1.04
2023-01-10T03:44:44.954Z,1.01
2023-01-10T03:47:26.022Z,0.98
2023-01-10T03:49:59.691Z,1.09
2023-01-10T03:52:28.755Z,1.19
2023-01-10T03:54:57.520Z,1.11
2023-01-10T03:57:24.387Z,1.00
2023-01-10T03:59:53.045Z,1.00
2023-01-10T04:02:22.157Z,0.99
2023-01-10T04:04:48.628Z,1.10
2023-01-10T04:07:15.043Z,1.17
2023-01-10T04:09:41.520Z,1.06
2023-01-10T04:12:08.031Z,1.00
2023-01-10T04:14:34.541Z,1.01
2023-01-10T04:17:01.067Z,1.01
2023-01-10T04:19:28.349Z,1.13
2023-01-10T04:21:55.617Z,1.24
2023-01-10T04:24:24.192Z,1.15
2023-01-10T04:26:50.983Z,1.11
2023-01-10T04:29:17.440Z,1.09
2023-01-10T04:31:46.193Z,1.07
2023-01-10T04:34:12.744Z,1.08
2023-01-10T04:36:39.212Z,1.20
2023-01-10T04:39:05.763Z,1.19
2023-01-10T04:41:32.237Z,1.11
2023-01-10T04:43:58.801Z,1.11
2023-01-10T04:46:25.323Z,1.09
2023-01-10T04:48:54.708Z,1.10
2023-01-10T04:51:23.096Z,1.20
2023-01-10T04:53:49.709Z,1.19
2023-01-10T04:56:18.459Z,1.16
2023-01-10T04:58:44.948Z,1.12
2023-01-10T05:01:13.615Z,1.10
2023-01-10T05:03:41.001Z,1.10
2023-01-10T05:06:07.560Z,1.12
2023-01-10T05:08:34.042Z,1.22
2023-01-10T05:11:00.685Z,1.21
2023-01-10T05:13:28.096Z,1.15
2023-01-10T05:15:58.209Z,1.13
2023-01-10T05:18:28.905Z,1.09
2023-01-10T05:21:22.373Z,1.13
2023-01-10T05:23:50.992Z,1.17
2023-01-10T05:26:19.182Z,1.16
2023-01-10T05:28:47.617Z,1.13
2023-01-10T05:31:17.714Z,1.11
2023-01-10T05:33:45.879Z,1.12
2023-01-10T05:36:12.886Z,1.20
2023-01-10T05:38:39.451Z,1.23
2023-01-10T05:41:05.963Z,1.17
2023-01-10T05:43:32.510Z,1.19
2023-01-10T05:45:59.073Z,1.19
2023-01-10T05:48:25.621Z,1.17
2023-01-10T05:50:52.350Z,1.21
2023-01-10T05:53:19.550Z,1.26
2023-01-10T05:56:05.316Z,1.26
2023-01-10T05:58:31.888Z,1.27
2023-01-10T06:00:58.489Z,1.28
2023-01-10T06:03:28.357Z,1.25
2023-01-10T06:05:55.333Z,1.32
2023-01-10T06:08:22.286Z,1.32
2023-01-10T06:10:48.814Z,1.28
2023-01-10T06:13:15.294Z,1.27
2023-01-10T06:15:41.822Z,1.28
2023-01-10T06:18:11.168Z,1.31
2023-01-10T06:20:42.078Z,1.38
2023-01-10T06:23:08.614Z,1.39
2023-01-10T06:25:37.068Z,1.37
2023-01-10T06:28:06.163Z,1.42
2023-01-10T06:30:32.687Z,1.42
2023-01-10T06:33:08.074Z,1.43
2023-01-10T06:35:34.746Z,1.41
2023-01-10T06:38:01.627Z,1.38
2023-01-10T06:40:28.550Z,1.40
2023-01-10T06:42:55.030Z,1.44
2023-01-10T06:45:21.570Z,1.44
2023-01-10T06:47:48.126Z,1.44
2023-01-10T06:50:14.666Z,1.43
2023-01-10T06:52:42.043Z,1.13
2023-01-10T06:55:08.673Z,0.85
2023-01-10T06:57:38.711Z,0.82
2023-01-10T07:00:08.586Z,1.00
2023-01-10T07:02:35.098Z,0.90
2023-01-10T07:05:01.766Z,0.75
2023-01-10T07:07:28.418Z,0.84
2023-01-10T07:09:54.993Z,0.95
2023-01-10T07:12:21.547Z,1.02
2023-01-10T07:14:48.037Z,0.83
2023-01-10T07:17:18.302Z,0.73
2023-01-10T07:19:44.956Z,0.69
2023-01-10T07:22:11.837Z,0.65
2023-01-10T07:24:38.281Z,0.61
2023-01-10T07:27:04.768Z,0.76
2023-01-10T07:29:31.263Z,0.80
2023-01-10T07:31:57.795Z,0.70
2023-01-10T07:34:24.232Z,0.65
2023-01-10T07:36:52.652Z,0.62
2023-01-10T07:39:19.239Z,0.63
2023-01-10T07:41:47.417Z,0.60
2023-01-10T07:44:14.795Z,0.71
2023-01-10T07:46:41.283Z,0.82
2023-01-10T07:49:07.770Z,0.70
2023-01-10T07:51:34.409Z,0.66
2023-01-10T07:54:01.411Z,0.66
2023-01-10T07:56:27.960Z,0.60
2023-01-10T07:58:54.462Z,0.75
2023-01-10T08:01:23.391Z,0.74
2023-01-10T08:03:49.965Z,0.67
2023-01-10T08:06:16.877Z,0.63
2023-01-10T08:08:43.561Z,0.62
2023-01-10T08:11:10.001Z,0.61
2023-01-10T08:13:36.712Z,0.75
2023-01-10T08:16:07.080Z,0.73
2023-01-10T08:18:34.188Z,0.67
2023-01-10T08:21:01.709Z,0.68
2023-01-10T08:23:28.272Z,0.66
2023-01-10T08:25:55.221Z,0.64
2023-01-10T08:28:21.798Z,0.65
2023-01-10T08:30:50.408Z,0.68
2023-01-10T08:33:19.103Z,0.69
2023-01-10T08:35:45.741Z,0.69
2023-01-10T08:38:12.267Z,0.80
2023-01-10T08:40:38.857Z,0.95
2023-01-10T08:43:08.118Z,0.96
2023-01-10T08:45:34.960Z,0.89
2023-01-10T08:48:02.957Z,0.86
2023-01-10T08:50:30.050Z,0.84
2023-01-10T08:53:00.022Z,0.87
2023-01-10T08:55:27.581Z,0.88
2023-01-10T08:57:54.397Z,0.88
2023-01-10T09:00:21.379Z,0.92
2023-01-10T09:02:47.893Z,1.03
2023-01-10T09:05:27.131Z,1.08
2023-01-10T09:07:58.213Z,1.01
2023-01-10T09:10:24.880Z,1.00
2023-01-10T09:12:57.484Z,1.00
2023-01-10T09:15:28.913Z,1.01
2023-01-10T09:18:00.890Z,1.04
2023-01-10T09:20:29.006Z,1.09
2023-01-10T09:22:56.890Z,1.16
2023-01-10T09:25:24.108Z,1.22
2023-01-10T09:27:58.272Z,1.24
2023-01-10T09:30:24.873Z,1.22
2023-01-10T09:32:53.907Z,1.22
2023-01-10T09:35:20.527Z,1.24
2023-01-10T09:37:47.162Z,1.31
2023-01-10T09:40:15.957Z,1.34
2023-01-10T09:42:49.801Z,1.33
2023-01-10T09:45:37.934Z,1.36
2023-01-10T09:48:15.652Z,1.37
2023-01-10T09:50:54.876Z,1.41
2023-01-10T09:53:27.765Z,1.49
2023-01-10T09:55:58.143Z,1.46
2023-01-10T09:58:31.574Z,1.38
2023-01-10T10:01:11.811Z,1.39
2023-01-10T10:03:58.877Z,1.50
2023-01-10T10:06:25.376Z,1.28
2023-01-10T10:08:52.548Z,1.01
2023-01-10T10:11:39.312Z,1.06
2023-01-10T10:14:08.909Z,1.25
2023-01-10T10:16:54.038Z,1.40
2023-01-10T10:19:22.109Z,1.14
2023-01-10T10:21:51.318Z,1.02
2023-01-10T10:24:38.462Z,0.94
2023-01-10T10:27:10.855Z,0.96
2023-01-10T10:29:48.251Z,1.19
2023-01-10T10:32:37.492Z,1.11
2023-01-10T10:35:08.956Z,0.96
2023-01-10T10:37:41.127Z,0.90
2023-01-10T10:40:14.065Z,0.90
2023-01-10T10:42:47.299Z,0.98
2023-01-10T10:45:19.905Z,1.23
2023-01-10T10:47:50.999Z,1.11
2023-01-10T10:50:34.947Z,1.06
2023-01-10T10:53:05.476Z,1.01
2023-01-10T10:55:35.211Z,0.99
2023-01-10T10:58:03.658Z,1.15
2023-01-10T11:00:30.215Z,1.31
2023-01-10T11:03:11.779Z,1.18
2023-01-10T11:05:43.058Z,1.09
2023-01-10T11:08:15.936Z,1.06
2023-01-10T11:11:02.612Z,1.09
2023-01-10T11:13:35.364Z,1.32
2023-01-10T11:16:04.458Z,1.31
2023-01-10T11:18:32.818Z,1.21
2023-01-10T11:21:01.672Z,1.15
2023-01-10T11:23:32.525Z,1.17
2023-01-10T11:26:00.861Z,1.26
2023-01-10T11:28:30.158Z,1.43
2023-01-10T11:30:56.869Z,1.36
2023-01-10T11:33:26.994Z,1.29
2023-01-10T11:36:01.013Z,1.27
2023-01-10T11:38:30.740Z,1.29
2023-01-10T11:41:06.891Z,1.47
2023-01-10T11:43:40.505Z,1.51
2023-01-10T11:46:15.772Z,1.37
2023-01-10T11:49:06.781Z,1.30
2023-01-10T11:51:38.875Z,1.27
2023-01-10T11:54:07.156Z,1.47
2023-01-10T11:56:37.141Z,1.56
2023-01-10T11:59:17.463Z,1.35
2023-01-10T12:01:47.634Z,1.26
2023-01-10T12:04:17.879Z,1.25
2023-01-10T12:06:51.038Z,1.40
2023-01-10T12:09:34.760Z,1.60
2023-01-10T12:12:21.595Z,1.46
2023-01-10T12:14:49.375Z,1.38
2023-01-10T12:17:22.405Z,1.33
2023-01-10T12:19:53.281Z,1.45
2023-01-10T12:22:22.649Z,1.62
2023-01-10T12:24:50.733Z,1.42
2023-01-10T12:27:18.136Z,1.33
2023-01-10T12:29:47.575Z,1.27
2023-01-10T12:32:21.707Z,1.36
2023-01-10T12:34:52.922Z,1.50
2023-01-10T12:37:22.617Z,1.39
2023-01-10T12:39:55.609Z,1.29
2023-01-10T12:42:47.177Z,1.26
2023-01-10T12:45:19.861Z,1.29
2023-01-10T12:47:59.176Z,1.44
2023-01-10T12:50:29.079Z,1.40
2023-01-10T12:53:18.579Z,1.26
2023-01-10T12:55:45.427Z,1.22
2023-01-10T12:58:23.590Z,1.23
2023-01-10T13:00:52.956Z,1.39
2023-01-10T13:03:25.181Z,1.41
2023-01-10T13:05:53.202Z,1.33
2023-01-10T13:08:23.064Z,1.29
2023-01-10T13:10:51.587Z,1.24
2023-01-10T13:13:26.619Z,1.34
2023-01-10T13:15:55.805Z,1.48
2023-01-10T13:18:27.433Z,1.39
2023-01-10T13:21:15.533Z,1.30
2023-01-10T13:23:50.093Z,1.28
2023-01-10T13:26:16.660Z,1.31
2023-01-10T13:29:01.763Z,1.45
2023-01-10T13:31:32.846Z,1.40
2023-01-10T13:34:01.142Z,1.33
2023-01-10T13:36:35.635Z,1.29
2023-01-10T13:39:04.464Z,1.28
2023-01-10T13:42:12.012Z,1.42
2023-01-10T13:44:57.136Z,1.47
2023-01-10T13:47:48.376Z,1.35
2023-01-10T13:50:24.116Z,1.30
2023-01-10T13:52:54.074Z,1.27
2023-01-10T13:55:23.297Z,1.31
2023-01-10T13:57:51.725Z,1.46
2023-01-10T14:00:40.676Z,1.43
2023-01-10T14:03:09.186Z,1.36
2023-01-10T14:05:35.801Z,1.35
2023-01-10T14:08:02.579Z,1.38
2023-01-10T14:10:30.468Z,1.50
2023-01-10T14:13:09.299Z,1.64
2023-01-10T14:15:41.943Z,1.56
2023-01-10T14:18:20.817Z,1.45
2023-01-10T14:20:58.864Z,1.41
2023-01-10T14:23:28.522Z,1.42
2023-01-10T14:25:56.653Z,1.55
2023-01-10T14:28:34.108Z,1.52
2023-01-10T14:31:08.911Z,1.48
2023-01-10T14:33:36.460Z,1.42
2023-01-10T14:36:23.257Z,1.38
2023-01-10T14:38:50.760Z,1.51
2023-01-10T14:41:35.881Z,1.54
2023-01-10T14:44:12.033Z,1.46
2023-01-10T14:46:47.952Z,1.43
2023-01-10T14:49:35.362Z,1.43
2023-01-10T14:52:12.347Z,1.57
2023-01-10T14:54:38.939Z,1.58
2023-01-10T14:57:15.836Z,1.50
2023-01-10T14:59:42.321Z,1.46
2023-01-10T15:02:36.461Z,1.46
2023-01-10T15:05:17.816Z,1.49
2023-01-10T15:07:44.403Z,1.54
2023-01-10T15:10:20.440Z,1.48
2023-01-10T15:12:47.324Z,1.49
2023-01-10T15:15:16.771Z,1.44
2023-01-10T15:17:44.134Z,1.48
2023-01-10T15:20:16.021Z,1.57
2023-01-10T15:22:47.064Z,1.52
2023-01-10T15:25:26.950Z,1.46
2023-01-10T15:27:56.252Z,1.41
2023-01-10T15:30:27.143Z,1.37
2023-01-10T15:32:55.338Z,1.44
2023-01-10T15:35:35.313Z,1.52
2023-01-10T15:38:07.498Z,1.45
2023-01-10T15:40:39.705Z,1.42
2023-01-10T15:43:18.227Z,1.38
2023-01-10T15:45:45.854Z,1.35
2023-01-10T15:48:31.054Z,1.43
2023-01-10T15:51:22.620Z,1.51
2023-01-10T15:53:55.452Z,1.46
2023-01-10T15:56:27.070Z,1.40
2023-01-10T15:58:53.987Z,1.37
2023-01-10T16:01:20.783Z,1.34
2023-01-10T16:03:57.854Z,1.47
2023-01-10T16:06:30.565Z,1.52
2023-01-10T16:09:00.781Z,1.44
2023-01-10T16:11:48.885Z,1.39
2023-01-10T16:14:15.488Z,1.38
2023-01-10T16:16:42.055Z,1.35
2023-01-10T16:19:10.097Z,1.34
2023-01-10T16:21:40.244Z,1.42
2023-01-10T16:24:08.946Z,1.48
2023-01-10T16:26:37.196Z,1.40
2023-01-10T16:29:03.740Z,1.35
2023-01-10T16:31:30.315Z,1.32
2023-01-10T16:33:56.899Z,1.36
2023-01-10T16:36:23.539Z,1.35
2023-01-10T16:38:50.128Z,1.38
2023-01-10T16:41:35.373Z,1.45
2023-01-10T16:44:01.932Z,1.42
2023-01-10T16:46:28.762Z,1.40
2023-01-10T16:48:55.295Z,1.39
2023-01-10T16:51:26.217Z,1.38
2023-01-10T16:53:53.399Z,1.39
2023-01-10T16:56:21.531Z,1.42
2023-01-10T16:58:48.794Z,1.47
2023-01-10T17:01:17.425Z,1.54
2023-01-10T17:03:44.343Z,1.54
2023-01-10T17:06:12.121Z,1.52
2023-01-10T17:08:38.762Z,1.49
2023-01-10T17:11:06.880Z,1.49
2023-01-10T17:13:34.744Z,1.54
2023-01-10T17:16:01.392Z,1.63
2023-01-10T17:18:29.358Z,1.65
2023-01-10T17:20:59.889Z,1.61
2023-01-10T17:23:27.088Z,1.61
2023-01-10T17:26:00.767Z,1.62
2023-01-10T17:28:28.872Z,1.59
2023-01-10T17:30:55.828Z,1.62
2023-01-10T17:33:22.621Z,1.71
2023-01-10T17:35:49.107Z,1.70
2023-01-10T17:38:16.747Z,1.64
2023-01-10T17:40:44.369Z,1.62
2023-01-10T17:43:11.689Z,1.60
2023-01-10T17:45:44.018Z,1.68
2023-01-10T17:48:13.027Z,1.73
2023-01-10T17:50:39.680Z,1.80
2023-01-10T17:53:06.200Z,1.81
2023-01-10T17:55:32.931Z,1.77
2023-01-10T17:57:59.456Z,1.80
2023-01-10T18:00:27.081Z,1.80
2023-01-10T18:02:53.707Z,1.82
2023-01-10T18:05:20.395Z,1.90
2023-01-10T18:07:48.876Z,1.95
2023-01-10T18:10:15.385Z,1.95
2023-01-10T18:12:43.691Z,1.93
2023-01-10T18:15:10.402Z,1.96
2023-01-10T18:17:39.790Z,1.91
2023-01-10T18:20:06.873Z,1.90
2023-01-10T18:22:51.925Z,1.96
2023-01-10T18:25:19.430Z,1.96
2023-01-10T18:27:50.566Z,1.94
2023-01-10T18:30:19.677Z,1.91
2023-01-10T18:32:46.187Z,1.94
2023-01-10T18:35:12.891Z,1.97
2023-01-10T18:37:39.480Z,2.05
2023-01-10T18:40:06.367Z,2.12
2023-01-10T18:42:34.764Z,2.17
2023-01-10T18:45:01.513Z,2.06
2023-01-10T18:47:28.143Z,1.64
2023-01-10T18:49:54.588Z,1.49
2023-01-10T18:52:21.167Z,1.42
2023-01-10T18:54:52.135Z,1.64
2023-01-10T18:57:19.166Z,1.55
2023-01-10T18:59:45.846Z,1.43
2023-01-10T19:02:15.837Z,1.55
2023-01-10T19:04:42.439Z,1.69
2023-01-10T19:07:08.999Z,1.81
2023-01-10T19:09:35.512Z,1.87
2023-01-10T19:12:01.996Z,1.61
2023-01-10T19:14:28.562Z,1.51
2023-01-10T19:16:55.003Z,1.48
2023-01-10T19:19:21.508Z,1.46
2023-01-10T19:21:48.671Z,1.61
2023-01-10T19:24:20.239Z,1.44
2023-01-10T19:26:46.745Z,1.28
2023-01-10T19:29:13.223Z,1.24
2023-01-10T19:34:28.546Z,1.31
2023-01-10T19:37:00.113Z,1.46
2023-01-10T19:39:26.701Z,1.34
2023-01-10T19:41:53.231Z,1.32
2023-01-10T19:44:19.681Z,1.30
2023-01-10T19:46:47.572Z,1.32
2023-01-10T19:49:17.213Z,1.47
2023-01-10T19:51:45.634Z,1.44
2023-01-10T19:54:12.209Z,1.35
2023-01-10T19:56:38.664Z,1.31
2023-01-10T19:59:05.221Z,1.28
2023-01-10T20:01:31.987Z,1.34
2023-01-10T20:04:01.094Z,1.49
2023-01-10T20:06:28.660Z,1.42
2023-01-10T20:08:55.277Z,1.40
2023-01-10T20:11:22.858Z,1.38
2023-01-10T20:13:51.401Z,1.36
2023-01-10T20:16:19.160Z,1.43
2023-01-10T20:18:46.912Z,1.57
2023-01-10T20:21:15.649Z,1.46
2023-01-10T20:23:43.067Z,1.38
2023-01-10T20:26:12.287Z,1.37
2023-01-10T20:28:39.395Z,1.40
2023-01-10T20:31:07.318Z,1.50
2023-01-10T20:33:34.626Z,1.60
2023-01-10T20:36:03.786Z,1.52
2023-01-10T20:38:30.939Z,1.47
2023-01-10T20:41:01.009Z,1.47
2023-01-10T20:43:27.992Z,1.48
2023-01-10T20:45:54.913Z,1.63
2023-01-10T20:48:23.763Z,1.68
2023-01-10T20:50:50.301Z,1.54
2023-01-10T20:53:16.895Z,1.51
2023-01-10T20:55:46.808Z,1.49
2023-01-10T20:58:17.301Z,1.64
2023-01-10T21:00:43.761Z,1.74
2023-01-10T21:03:10.394Z,1.65
2023-01-10T21:05:37.020Z,1.62
2023-01-10T21:08:03.513Z,1.61
2023-01-10T21:10:32.161Z,1.61
2023-01-10T21:12:58.658Z,1.74
2023-01-10T21:15:25.189Z,1.79
2023-01-10T21:17:51.861Z,1.68
2023-01-10T21:20:19.739Z,1.66
2023-01-10T21:22:46.806Z,1.68
2023-01-10T21:25:13.518Z,1.68
2023-01-10T21:27:40.042Z,1.81
2023-01-10T21:30:06.854Z,1.79
2023-01-10T21:32:36.145Z,1.70
2023-01-10T21:35:02.668Z,1.68
2023-01-10T21:37:31.252Z,1.67
2023-01-10T21:39:59.643Z,1.71
2023-01-10T21:42:35.135Z,1.84
2023-01-10T21:45:02.071Z,1.76
2023-01-10T21:47:28.613Z,1.69
2023-01-10T21:49:55.244Z,1.66
2023-01-10T21:52:21.696Z,1.65
2023-01-10T21:54:48.172Z,1.74
2023-01-10T21:57:17.010Z,1.90
2023-01-10T21:59:43.473Z,1.75
2023-01-10T22:02:15.218Z,1.70
2023-01-10T22:04:45.548Z,1.65
2023-01-10T22:07:12.043Z,1.63
2023-01-10T22:09:38.603Z,1.77
2023-01-10T22:12:05.159Z,1.89
2023-01-10T22:14:31.817Z,1.80
2023-01-10T22:16:58.341Z,1.74
2023-01-10T22:19:26.381Z,1.70
2023-01-10T22:21:52.895Z,1.70
2023-01-10T22:24:19.377Z,1.86
2023-01-10T22:26:45.990Z,1.90
2023-01-10T22:29:12.716Z,1.85
2023-01-10T22:31:41.289Z,1.83
2023-01-10T22:34:08.160Z,1.81
2023-01-10T22:36:34.699Z,1.85
2023-01-10T22:39:01.189Z,1.98
2023-01-10T22:41:30.788Z,2.05
2023-01-10T22:43:59.622Z,1.96
2023-01-10T22:46:26.361Z,1.94
2023-01-10T22:48:53.140Z,1.94
2023-01-10T22:51:20.579Z,1.95
2023-01-10T22:53:54.872Z,2.07
2023-01-10T22:56:25.748Z,2.16
2023-01-10T22:58:52.795Z,2.07
2023-01-10T23:01:20.524Z,2.00
2023-01-10T23:03:49.725Z,2.03
2023-01-10T23:06:16.679Z,2.05
2023-01-10T23:08:43.187Z,2.14
2023-01-10T23:11:10.416Z,2.24
2023-01-10T23:13:36.963Z,2.19
2023-01-10T23:16:05.735Z,2.15
2023-01-10T23:18:35.017Z,2.11
2023-01-10T23:21:02.608Z,2.13
2023-01-10T23:23:29.143Z,2.21
2023-01-10T23:26:02.647Z,2.29
2023-01-10T23:28:29.143Z,2.23
2023-01-10T23:30:55.598Z,2.22
2023-01-10T23:33:22.995Z,2.21
2023-01-10T23:35:49.743Z,2.22
2023-01-10T23:38:16.251Z,2.32
2023-01-10T23:40:43.144Z,2.41
2023-01-10T23:43:09.692Z,2.32
2023-01-10T23:45:36.946Z,2.31
2023-01-10T23:48:04.134Z,2.31
2023-01-10T23:50:30.695Z,2.29
2023-01-10T23:52:57.134Z,2.37
2023-01-10T23:55:23.614Z,2.45
2023-01-10T23:57:50.066Z,2.39
